createdAt,value
2023-02-04T00:00:19.217Z,21.80
2023-02-04T00:02:46.004Z,13.50
2023-02-04T00:05:15.497Z,15.50
2023-02-04T00:07:42.044Z,12.67
2023-02-04T00:10:09.454Z,16.03
2023-02-04T00:12:36.287Z,19.43
2023-02-04T00:15:03.885Z,15.10
2023-02-04T00:17:30.134Z,12.83
2023-02-04T00:19:56.328Z,14.07
2023-02-04T00:22:22.756Z,12.43
2023-02-04T00:24:49.778Z,16.47
2023-02-04T00:27:16.385Z,14.97
2023-02-04T00:29:42.716Z,16.87
2023-02-04T00:32:09.001Z,14.67
2023-02-04T00:34:35.297Z,18.20
2023-02-04T00:37:02.646Z,17.57
2023-02-04T00:39:29.056Z,16.77
2023-02-04T00:41:55.312Z,12.63
2023-02-04T00:44:21.523Z,19.37
2023-02-04T00:46:48.063Z,22.87
2023-02-04T00:49:14.322Z,16.07
2023-02-04T00:51:45.607Z,16.80
2023-02-04T00:54:13.949Z,16.17
2023-02-04T00:56:40.215Z,15.47
2023-02-04T00:59:06.613Z,17.53
2023-02-04T01:01:32.856Z,15.50
2023-02-04T01:03:59.320Z,16.50
2023-02-04T01:06:25.594Z,18.83
2023-02-04T01:08:52.296Z,16.23
2023-02-04T01:11:18.870Z,16.40
2023-02-04T01:13:45.495Z,19.83
2023-02-04T01:16:13.475Z,18.50
2023-02-04T01:18:40.785Z,18.90
2023-02-04T01:21:07.148Z,19.83
2023-02-04T01:23:33.421Z,26.37
2023-02-04T01:25:59.936Z,18.33
2023-02-04T01:28:26.539Z,14.77
2023-02-04T01:30:52.829Z,19.50
2023-02-04T01:33:20.753Z,25.27
2023-02-04T01:35:47.095Z,24.20
2023-02-04T01:38:13.503Z,13.57
2023-02-04T01:40:41.411Z,19.20
2023-02-04T01:43:08.653Z,18.87
2023-02-04T01:45:35.267Z,18.37
2023-02-04T01:48:04.645Z,18.13
2023-02-04T01:50:32.437Z,17.30
2023-02-04T01:52:59.599Z,18.87
2023-02-04T01:55:31.242Z,17.87
2023-02-04T01:57:59.476Z,18.53
2023-02-04T02:00:31.372Z,20.60
2023-02-04T02:02:59.560Z,17.57
2023-02-04T02:05:37.012Z,19.07
2023-02-04T02:08:05.780Z,17.80
2023-02-04T02:10:34.223Z,29.50
2023-02-04T02:13:01.196Z,22.30
2023-02-04T02:15:28.026Z,20.97
2023-02-04T02:17:55.204Z,22.93
2023-02-04T02:20:24.709Z,25.93
2023-02-04T02:23:20.226Z,16.87
2023-02-04T02:25:47.962Z,16.67
2023-02-04T02:28:19.424Z,20.43
2023-02-04T02:30:48.496Z,17.07
2023-02-04T02:33:18.495Z,17.00
2023-02-04T02:35:47.636Z,17.90
2023-02-04T02:38:16.224Z,22.80
2023-02-04T02:40:43.292Z,21.03
2023-02-04T02:43:16.190Z,17.33
2023-02-04T02:45:43.442Z,15.17
2023-02-04T02:48:11.196Z,21.20
2023-02-04T02:50:38.337Z,22.90
2023-02-04T02:53:14.049Z,13.07
2023-02-04T02:55:41.711Z,16.60
2023-02-04T02:58:38.140Z,14.80
2023-02-04T03:01:08.936Z,18.73
2023-02-04T03:03:45.205Z,20.23
2023-02-04T03:06:25.962Z,15.47
2023-02-04T03:08:56.103Z,18.73
2023-02-04T03:11:25.462Z,20.47
2023-02-04T03:13:52.834Z,25.57
2023-02-04T03:16:19.546Z,21.50
2023-02-04T03:18:46.678Z,19.73
2023-02-04T03:21:13.002Z,18.60
2023-02-04T03:23:39.446Z,12.30
2023-02-04T03:26:06.246Z,21.47
2023-02-04T03:28:33.206Z,14.37
2023-02-04T03:30:59.778Z,24.40
2023-02-04T03:33:31.128Z,19.57
2023-02-04T03:35:58.271Z,14.67
2023-02-04T03:38:24.585Z,14.73
2023-02-04T03:40:50.862Z,19.67
2023-02-04T03:43:17.101Z,20.63
2023-02-04T03:45:45.496Z,16.57
2023-02-04T03:48:12.986Z,17.60
2023-02-04T03:50:39.233Z,13.93
2023-02-04T03:53:05.424Z,18.20
2023-02-04T03:55:32.223Z,20.37
2023-02-04T03:57:58.538Z,18.87
2023-02-04T04:00:24.763Z,15.83
2023-02-04T04:02:51.322Z,19.97
2023-02-04T04:05:17.782Z,16.77
2023-02-04T04:07:44.373Z,17.53
2023-02-04T04:10:11.505Z,12.70
2023-02-04T04:12:37.958Z,23.23
2023-02-04T04:15:04.725Z,13.70
2023-02-04T04:17:31.107Z,14.07
2023-02-04T04:19:57.431Z,16.83
2023-02-04T04:22:23.721Z,16.63
2023-02-04T04:24:49.970Z,16.23
2023-02-04T04:27:16.235Z,16.80
2023-02-04T04:29:42.485Z,13.07
2023-02-04T04:32:09.379Z,24.20
2023-02-04T04:34:36.347Z,22.47
2023-02-04T04:37:02.770Z,22.17
2023-02-04T04:39:28.978Z,19.90
2023-02-04T04:41:55.130Z,15.73
2023-02-04T04:44:21.868Z,23.97
2023-02-04T04:46:48.138Z,23.63
2023-02-04T04:49:15.604Z,14.70
2023-02-04T04:51:42.170Z,16.33
2023-02-04T04:54:08.418Z,15.67
2023-02-04T04:56:34.721Z,19.53
2023-02-04T04:59:01.014Z,20.97
2023-02-04T05:01:27.290Z,13.37
2023-02-04T05:03:53.518Z,16.67
2023-02-04T05:06:24.505Z,19.10
2023-02-04T05:08:54.067Z,17.33
2023-02-04T05:11:21.137Z,18.37
2023-02-04T05:13:47.869Z,15.20
2023-02-04T05:16:14.462Z,14.73
2023-02-04T05:18:41.561Z,16.27
2023-02-04T05:21:07.957Z,16.33
2023-02-04T05:23:34.730Z,17.73
2023-02-04T05:26:01.060Z,17.27
2023-02-04T05:28:27.323Z,14.87
2023-02-04T05:30:53.614Z,15.53
2023-02-04T05:33:19.890Z,17.67
2023-02-04T05:35:46.083Z,16.07
2023-02-04T05:38:12.414Z,16.90
2023-02-04T05:40:38.703Z,18.30
2023-02-04T05:43:05.037Z,12.23
2023-02-04T05:45:31.315Z,18.50
2023-02-04T05:47:57.526Z,24.07
2023-02-04T05:50:23.711Z,19.97
2023-02-04T05:52:50.330Z,15.43
2023-02-04T05:55:16.700Z,22.23
2023-02-04T05:57:42.928Z,19.43
2023-02-04T06:00:12.688Z,18.03
2023-02-04T06:02:39.093Z,17.20
2023-02-04T06:05:05.863Z,21.33
2023-02-04T06:07:32.175Z,15.27
2023-02-04T06:10:00.093Z,14.77
2023-02-04T06:12:26.707Z,14.27
2023-02-04T06:14:52.941Z,20.47
2023-02-04T06:17:19.119Z,16.43
2023-02-04T06:19:45.278Z,16.93
2023-02-04T06:22:11.449Z,17.13
2023-02-04T06:24:37.802Z,18.97
2023-02-04T06:27:04.034Z,22.33
2023-02-04T06:29:30.326Z,16.43
2023-02-04T06:31:56.733Z,14.80
2023-02-04T06:34:23.144Z,10.23
2023-02-04T06:36:49.343Z,15.10
2023-02-04T06:39:15.610Z,10.37
2023-02-04T06:41:41.776Z,11.73
2023-02-04T06:44:08.188Z,14.07
2023-02-04T06:46:34.608Z,15.63
2023-02-04T06:49:00.856Z,22.90
2023-02-04T06:51:27.042Z,15.37
2023-02-04T06:53:53.255Z,13.77
2023-02-04T06:56:19.447Z,17.07
2023-02-04T06:58:45.799Z,19.10
2023-02-04T07:01:12.013Z,20.67
2023-02-04T07:03:38.312Z,16.00
2023-02-04T07:06:04.750Z,12.80
2023-02-04T07:08:31.064Z,16.20
2023-02-04T07:10:57.228Z,8.07
2023-02-04T07:13:23.737Z,14.43
2023-02-04T07:15:51.785Z,12.67
2023-02-04T07:18:19.210Z,16.37
2023-02-04T07:20:45.656Z,15.70
2023-02-04T07:23:11.940Z,13.20
2023-02-04T07:25:38.563Z,20.43
2023-02-04T07:28:05.524Z,16.27
2023-02-04T07:30:33.141Z,17.43
2023-02-04T07:32:59.558Z,16.37
2023-02-04T07:35:25.936Z,14.87
2023-02-04T07:37:52.116Z,19.37
2023-02-04T07:40:18.527Z,14.70
2023-02-04T07:42:44.706Z,12.33
2023-02-04T07:45:16.270Z,16.67
2023-02-04T07:47:42.501Z,20.97
2023-02-04T07:50:09.147Z,18.13
2023-02-04T07:52:35.362Z,14.50
2023-02-04T07:55:01.641Z,21.17
2023-02-04T07:57:29.260Z,21.60
2023-02-04T07:59:55.936Z,21.97
2023-02-04T08:02:22.437Z,17.20
2023-02-04T08:04:48.697Z,15.10
2023-02-04T08:07:14.915Z,19.17
2023-02-04T08:09:41.109Z,15.27
2023-02-04T08:12:07.313Z,18.10
2023-02-04T08:14:33.553Z,25.73
2023-02-04T08:16:59.883Z,20.37
2023-02-04T08:19:26.116Z,17.83
2023-02-04T08:21:53.064Z,20.10
2023-02-04T08:24:19.271Z,18.47
2023-02-04T08:26:45.507Z,21.17
2023-02-04T08:29:11.764Z,18.37
2023-02-04T08:31:38.289Z,16.70
2023-02-04T08:34:05.867Z,23.90
2023-02-04T08:36:33.138Z,24.07
2023-02-04T08:38:59.465Z,25.50
2023-02-04T08:41:25.766Z,16.20
2023-02-04T08:43:52.041Z,17.57
2023-02-04T08:46:18.291Z,19.50
2023-02-04T08:48:44.502Z,18.77
2023-02-04T08:51:10.727Z,18.33
2023-02-04T08:53:38.631Z,18.13
2023-02-04T08:56:05.948Z,13.97
2023-02-04T08:58:32.219Z,17.33
2023-02-04T09:00:58.447Z,21.03
2023-02-04T09:03:24.646Z,20.07
2023-02-04T09:05:50.909Z,23.00
2023-02-04T09:08:17.308Z,18.63
2023-02-04T09:10:44.034Z,18.90
2023-02-04T09:13:11.120Z,15.57
2023-02-04T09:15:37.312Z,20.30
2023-02-04T09:18:11.254Z,19.83
2023-02-04T09:20:38.472Z,18.70
2023-02-04T09:23:08.225Z,17.03
2023-02-04T09:25:34.712Z,24.17
2023-02-04T09:28:01.213Z,25.57
2023-02-04T09:30:27.459Z,20.07
2023-02-04T09:32:53.701Z,20.77
2023-02-04T09:35:19.904Z,19.97
2023-02-04T09:37:46.085Z,22.67
2023-02-04T09:40:17.924Z,24.57
2023-02-04T09:42:46.266Z,18.07
2023-02-04T09:45:20.939Z,21.57
2023-02-04T09:47:48.293Z,21.77
2023-02-04T09:50:23.638Z,24.40
2023-02-04T09:52:54.891Z,14.07
2023-02-04T09:55:27.686Z,19.20
2023-02-04T09:57:54.135Z,18.70
2023-02-04T10:00:25.308Z,19.60
2023-02-04T10:02:52.046Z,18.17
2023-02-04T10:05:28.348Z,20.13
2023-02-04T10:07:54.679Z,20.73
2023-02-04T10:10:25.013Z,22.77
2023-02-04T10:12:58.107Z,14.83
2023-02-04T10:15:25.133Z,21.67
2023-02-04T10:18:06.964Z,12.50
2023-02-04T10:20:33.905Z,19.47
2023-02-04T10:23:00.285Z,14.70
2023-02-04T10:25:27.535Z,22.57
2023-02-04T10:27:59.815Z,24.33
2023-02-04T10:30:38.300Z,19.07
2023-02-04T10:33:24.325Z,19.10
2023-02-04T10:35:54.732Z,16.57
2023-02-04T10:38:21.609Z,15.27
2023-02-04T10:40:59.581Z,18.83
2023-02-04T10:43:25.790Z,19.20
2023-02-04T10:46:03.799Z,23.30
2023-02-04T10:48:39.647Z,19.67
2023-02-04T10:51:05.904Z,17.33
2023-02-04T10:53:51.210Z,15.40
2023-02-04T10:56:20.901Z,22.17
2023-02-04T10:58:49.026Z,24.57
2023-02-04T11:01:16.681Z,21.20
2023-02-04T11:03:47.650Z,22.23
2023-02-04T11:06:22.326Z,18.20
2023-02-04T11:08:51.191Z,17.67
2023-02-04T11:11:22.523Z,31.27
2023-02-04T11:13:51.898Z,25.00
2023-02-04T11:16:18.093Z,19.73
2023-02-04T11:18:50.000Z,17.90
2023-02-04T11:21:44.043Z,19.87
2023-02-04T11:24:13.329Z,14.67
2023-02-04T11:26:42.887Z,15.90
2023-02-04T11:29:26.774Z,18.97
2023-02-04T11:32:23.566Z,13.80
2023-02-04T11:34:55.084Z,17.03
2023-02-04T11:37:34.918Z,16.97
2023-02-04T11:40:19.528Z,17.27
2023-02-04T11:42:47.023Z,9.03
2023-02-04T11:45:16.287Z,15.57
2023-02-04T11:47:43.877Z,15.70
2023-02-04T11:50:24.246Z,12.00
2023-02-04T11:52:53.427Z,12.77
2023-02-04T11:55:19.737Z,17.33
2023-02-04T11:57:52.740Z,12.30
2023-02-04T12:00:28.162Z,13.57
2023-02-04T12:03:03.792Z,16.90
2023-02-04T12:05:49.204Z,25.27
2023-02-04T12:08:21.312Z,13.37
2023-02-04T12:11:00.291Z,16.27
2023-02-04T12:13:29.128Z,13.43
2023-02-04T12:16:07.222Z,12.70
2023-02-04T12:18:34.711Z,15.67
2023-02-04T12:21:03.688Z,15.27
2023-02-04T12:23:30.568Z,7.43
2023-02-04T12:25:58.018Z,11.17
2023-02-04T12:28:24.947Z,12.37
2023-02-04T12:30:51.318Z,14.67
2023-02-04T12:33:17.696Z,15.77
2023-02-04T12:35:44.032Z,12.40
2023-02-04T12:38:10.675Z,12.03
2023-02-04T12:40:37.124Z,14.77
2023-02-04T12:43:03.573Z,13.77
2023-02-04T12:45:29.894Z,10.20
2023-02-04T12:47:56.219Z,17.03
2023-02-04T12:50:22.610Z,11.90
2023-02-04T12:52:54.299Z,16.07
2023-02-04T12:55:23.263Z,17.23
2023-02-04T12:57:50.600Z,9.23
2023-02-04T13:00:19.519Z,12.47
2023-02-04T13:02:46.576Z,21.53
2023-02-04T13:05:14.583Z,16.60
2023-02-04T13:07:41.464Z,9.23
2023-02-04T13:10:12.712Z,24.10
2023-02-04T13:12:39.181Z,15.00
2023-02-04T13:15:06.127Z,14.60
2023-02-04T13:17:33.046Z,13.07
2023-02-04T13:19:59.868Z,10.20
2023-02-04T13:22:26.617Z,10.17
2023-02-04T13:24:52.879Z,10.50
2023-02-04T13:27:19.083Z,12.43
2023-02-04T13:29:45.416Z,14.80
2023-02-04T13:32:11.597Z,8.73
2023-02-04T13:34:37.836Z,10.23
2023-02-04T13:37:04.189Z,12.90
2023-02-04T13:39:30.394Z,9.60
2023-02-04T13:41:56.597Z,15.03
2023-02-04T13:44:22.852Z,10.60
2023-02-04T13:46:49.272Z,8.40
2023-02-04T13:49:15.473Z,15.93
2023-02-04T13:51:41.648Z,13.17
2023-02-04T13:54:07.900Z,16.77
2023-02-04T13:56:34.261Z,13.33
2023-02-04T13:59:00.592Z,13.97
2023-02-04T14:01:27.623Z,8.80
2023-02-04T14:03:53.828Z,12.47
2023-02-04T14:06:21.341Z,13.30
2023-02-04T14:08:47.966Z,10.37
2023-02-04T14:11:14.255Z,11.57
2023-02-04T14:13:40.432Z,14.53
2023-02-04T14:16:08.633Z,11.10
2023-02-04T14:18:35.174Z,14.67
2023-02-04T14:21:01.399Z,13.13
2023-02-04T14:23:27.538Z,9.70
2023-02-04T14:25:53.873Z,12.63
2023-02-04T14:28:20.090Z,13.00
2023-02-04T14:30:46.296Z,12.13
2023-02-04T14:33:14.714Z,17.53
2023-02-04T14:35:42.193Z,10.90
2023-02-04T14:38:10.631Z,11.83
2023-02-04T14:40:36.897Z,10.30
2023-02-04T14:43:03.055Z,8.47
2023-02-04T14:45:29.510Z,13.50
2023-02-04T14:47:56.806Z,12.50
2023-02-04T14:50:26.342Z,11.77
2023-02-04T14:52:53.781Z,10.60
2023-02-04T14:55:19.956Z,13.57
2023-02-04T14:57:46.096Z,11.33
2023-02-04T15:00:13.218Z,10.27
2023-02-04T15:02:39.525Z,14.33
2023-02-04T15:05:06.159Z,16.97
2023-02-04T15:07:32.470Z,10.57
2023-02-04T15:09:58.647Z,9.83
2023-02-04T15:12:25.014Z,9.07
2023-02-04T15:14:51.278Z,10.13
2023-02-04T15:17:18.165Z,8.20
2023-02-04T15:19:44.807Z,7.70
2023-02-04T15:22:11.888Z,8.63
2023-02-04T15:24:39.209Z,9.63
2023-02-04T15:27:05.839Z,9.97
2023-02-04T15:29:32.663Z,9.07
2023-02-04T15:31:59.033Z,11.70
2023-02-04T15:34:25.356Z,11.70
2023-02-04T15:36:51.933Z,10.10
2023-02-04T15:39:18.131Z,12.50
2023-02-04T15:41:44.525Z,10.07
2023-02-04T15:44:11.806Z,9.23
2023-02-04T15:46:38.250Z,6.60
2023-02-04T15:49:04.613Z,10.17
2023-02-04T15:51:31.185Z,12.00
2023-02-04T15:53:57.519Z,11.43
2023-02-04T15:56:23.699Z,9.93
2023-02-04T15:58:49.943Z,11.90
2023-02-04T16:01:16.239Z,7.83
2023-02-04T16:03:43.928Z,7.27
2023-02-04T16:06:10.812Z,11.43
2023-02-04T16:08:38.478Z,12.00
2023-02-04T16:11:06.111Z,8.97
2023-02-04T16:13:32.693Z,11.33
2023-02-04T16:15:59.016Z,10.33
2023-02-04T16:18:25.662Z,10.17
2023-02-04T16:20:51.892Z,8.67
2023-02-04T16:23:18.098Z,9.80
2023-02-04T16:25:44.875Z,8.37
2023-02-04T16:28:11.421Z,6.83
2023-02-04T16:30:38.652Z,11.50
2023-02-04T16:33:06.438Z,11.23
2023-02-04T16:36:00.221Z,10.97
2023-02-04T16:38:27.389Z,6.83
2023-02-04T16:40:54.178Z,14.93
2023-02-04T16:43:20.646Z,6.80
2023-02-04T16:45:46.947Z,9.33
2023-02-04T16:48:13.588Z,10.97
2023-02-04T16:50:39.785Z,9.20
2023-02-04T16:53:06.373Z,10.17
2023-02-04T16:55:32.984Z,12.77
2023-02-04T16:57:59.252Z,10.47
2023-02-04T17:00:25.458Z,8.67
2023-02-04T17:02:51.678Z,9.83
2023-02-04T17:05:17.982Z,14.10
2023-02-04T17:07:44.189Z,12.83
2023-02-04T17:10:10.424Z,9.83
2023-02-04T17:12:36.739Z,11.03
2023-02-04T17:15:03.351Z,8.00
2023-02-04T17:17:29.644Z,11.23
2023-02-04T17:19:56.553Z,5.83
2023-02-04T17:22:22.718Z,7.50
2023-02-04T17:24:49.194Z,8.27
2023-02-04T17:27:15.621Z,9.93
2023-02-04T17:29:41.864Z,6.20
2023-02-04T17:32:11.468Z,7.17
2023-02-04T17:34:37.791Z,8.70
2023-02-04T17:37:03.997Z,7.40
2023-02-04T17:39:30.464Z,10.97
2023-02-04T17:41:56.766Z,9.27
2023-02-04T17:44:26.621Z,13.13
2023-02-04T17:46:53.747Z,7.47
2023-02-04T17:49:20.009Z,9.73
2023-02-04T17:51:46.319Z,9.83
2023-02-04T17:54:13.931Z,7.90
2023-02-04T17:56:40.141Z,8.27
2023-02-04T17:59:10.324Z,11.20
2023-02-04T18:01:37.159Z,11.20
2023-02-04T18:04:06.121Z,9.43
2023-02-04T18:06:32.677Z,9.93
2023-02-04T18:09:01.760Z,11.27
2023-02-04T18:11:38.401Z,11.17
2023-02-04T18:14:26.887Z,11.07
2023-02-04T18:16:59.670Z,8.50
2023-02-04T18:19:34.363Z,11.90
2023-02-04T18:22:04.978Z,10.50
2023-02-04T18:24:38.865Z,12.73
2023-02-04T18:27:19.797Z,12.73
2023-02-04T18:29:54.625Z,12.67
2023-02-04T18:32:32.933Z,12.80
2023-02-04T18:35:02.031Z,12.20
2023-02-04T18:37:40.822Z,13.40
2023-02-04T18:40:10.324Z,11.70
2023-02-04T18:42:40.402Z,11.20
2023-02-04T18:45:31.554Z,13.30
2023-02-04T18:48:20.515Z,13.80
2023-02-04T18:50:49.721Z,9.83
2023-02-04T18:53:27.231Z,10.87
2023-02-04T18:56:00.277Z,11.10
2023-02-04T18:58:39.901Z,9.83
2023-02-04T19:01:09.203Z,10.70
2023-02-04T19:03:52.304Z,12.17
2023-02-04T19:06:27.974Z,8.47
2023-02-04T19:09:23.279Z,8.87
2023-02-04T19:11:53.016Z,20.13
2023-02-04T19:14:43.713Z,11.53
2023-02-04T19:17:27.784Z,13.87
2023-02-04T19:19:59.195Z,14.20
2023-02-04T19:22:47.049Z,11.23
2023-02-04T19:25:31.607Z,15.13
2023-02-04T19:28:27.758Z,17.33
2023-02-04T19:31:01.326Z,11.70
2023-02-04T19:33:42.365Z,11.07
2023-02-04T19:36:36.597Z,15.13
2023-02-04T19:39:28.643Z,29.40
2023-02-04T19:41:57.440Z,25.37
2023-02-04T19:44:45.627Z,29.57
2023-02-04T19:47:36.709Z,30.23
2023-02-04T19:50:12.032Z,31.23
2023-02-04T19:52:42.207Z,22.20
2023-02-04T19:55:17.513Z,13.47
2023-02-04T19:57:53.340Z,22.73
2023-02-04T20:00:44.060Z,10.97
2023-02-04T20:03:40.471Z,10.77
2023-02-04T20:06:09.554Z,14.07
2023-02-04T20:08:44.876Z,14.37
2023-02-04T20:11:17.322Z,12.97
2023-02-04T20:13:43.992Z,16.77
2023-02-04T20:16:58.064Z,16.20
2023-02-04T20:19:30.342Z,21.93
2023-02-04T20:22:21.019Z,13.27
2023-02-04T20:24:56.551Z,14.50
2023-02-04T20:27:27.141Z,16.00
2023-02-04T20:30:13.616Z,16.03
2023-02-04T20:32:44.609Z,10.20
2023-02-04T20:35:35.351Z,11.30
2023-02-04T20:38:15.764Z,10.93
2023-02-04T20:40:43.900Z,12.17
2023-02-04T20:43:18.402Z,17.43
2023-02-04T20:45:51.567Z,12.53
2023-02-04T20:48:17.664Z,11.70
2023-02-04T20:50:46.635Z,14.47
2023-02-04T20:53:31.630Z,15.30
2023-02-04T20:56:30.826Z,13.13
2023-02-04T20:59:10.364Z,16.77
2023-02-04T21:01:55.747Z,13.13
2023-02-04T21:04:43.179Z,17.17
2023-02-04T21:07:17.269Z,15.97
2023-02-04T21:09:45.142Z,16.13
2023-02-04T21:12:12.219Z,11.83
2023-02-04T21:14:39.037Z,11.07
2023-02-04T21:17:05.665Z,12.73
2023-02-04T21:19:34.354Z,10.40
2023-02-04T21:22:01.108Z,11.00
2023-02-04T21:24:30.818Z,13.37
2023-02-04T21:26:57.461Z,17.50
2023-02-04T21:29:25.253Z,15.30
2023-02-04T21:31:52.005Z,17.33
2023-02-04T21:34:18.225Z,18.87
2023-02-04T21:36:44.483Z,25.70
2023-02-04T21:39:10.700Z,17.20
2023-02-04T21:41:36.908Z,14.10
2023-02-04T21:44:03.453Z,20.17
2023-02-04T21:46:30.075Z,19.83
2023-02-04T21:48:56.437Z,15.33
2023-02-04T21:51:22.736Z,13.07
2023-02-04T21:53:52.159Z,21.20
2023-02-04T21:56:18.337Z,13.23
2023-02-04T21:58:44.548Z,20.63
2023-02-04T22:01:10.756Z,20.53
2023-02-04T22:03:37.122Z,20.80
2023-02-04T22:06:03.528Z,19.10
2023-02-04T22:08:29.682Z,16.17
2023-02-04T22:10:56.156Z,15.47
2023-02-04T22:13:22.321Z,19.73
2023-02-04T22:15:48.558Z,20.80
2023-02-04T22:18:15.025Z,19.17
2023-02-04T22:20:41.373Z,16.37
2023-02-04T22:23:07.897Z,23.37
2023-02-04T22:25:34.534Z,17.17
2023-02-04T22:28:01.050Z,17.70
2023-02-04T22:30:27.299Z,21.73
2023-02-04T22:32:55.027Z,20.47
2023-02-04T22:35:21.249Z,12.13
2023-02-04T22:37:47.576Z,16.07
2023-02-04T22:40:13.879Z,23.50
2023-02-04T22:42:40.361Z,21.97
2023-02-04T22:45:09.367Z,17.40
2023-02-04T22:47:35.586Z,16.83
2023-02-04T22:50:01.724Z,20.57
2023-02-04T22:52:28.357Z,25.97
2023-02-04T22:54:54.757Z,21.83
2023-02-04T22:57:20.984Z,19.07
2023-02-04T22:59:47.197Z,24.70
2023-02-04T23:02:13.941Z,32.33
2023-02-04T23:04:43.594Z,28.23
2023-02-04T23:07:12.276Z,36.57
2023-02-04T23:09:39.291Z,32.90
2023-02-04T23:12:14.954Z,29.10
2023-02-04T23:14:45.033Z,21.43
2023-02-04T23:17:13.134Z,40.27
2023-02-04T23:19:40.078Z,42.47
2023-02-04T23:22:08.337Z,37.93
2023-02-04T23:24:35.474Z,42.80
2023-02-04T23:27:03.608Z,38.83
2023-02-04T23:29:34.628Z,31.93
2023-02-04T23:32:01.530Z,35.97
2023-02-04T23:34:27.700Z,39.93
2023-02-04T23:36:54.046Z,34.70
2023-02-04T23:39:20.903Z,34.77
2023-02-04T23:41:50.838Z,35.27
2023-02-04T23:44:17.559Z,31.70
2023-02-04T23:46:43.838Z,34.70
2023-02-04T23:49:10.785Z,28.23
2023-02-04T23:51:37.334Z,30.73
2023-02-04T23:54:04.070Z,31.77
2023-02-04T23:56:30.581Z,35.17
2023-02-04T23:58:57.040Z,36.23
